Time;durP1;ratioP1;P1;durP2;ratioP2;P2;SDS_P1;SDS_P2;PMS_P1;PMS_P2;Temp;Humidity;BMP_temperature;BMP_pressure;BME280_temperature;BME280_humidity;BME280_pressure;Samples;Min_cycle;Max_cycle;Signal;HPM_P1;HPM_P2
2022/08/21 00:01:24;;;;;;;8.02;4.32;;;16.30;99.90;;;;;;4936230;28;95967;-31
2022/08/21 00:03:49;;;;;;;5.07;4.60;;;16.20;99.90;;;;;;4936993;28;95427;-31
2022/08/21 00:06:15;;;;;;;5.88;3.72;;;16.20;99.90;;;;;;4938017;28;94402;-33
2022/08/21 00:08:41;;;;;;;6.25;4.45;;;16.10;99.90;;;;;;4937577;28;93007;-31
2022/08/21 00:11:07;;;;;;;5.55;4.25;;;16.10;99.90;;;;;;4937710;28;94602;-34
2022/08/21 00:13:33;;;;;;;5.43;4.47;;;16.10;99.90;;;;;;4927839;28;95200;-30
2022/08/21 00:16:00;;;;;;;9.85;5.18;;;16.10;99.90;;;;;;4917954;28;92318;-34
2022/08/21 00:18:26;;;;;;;9.32;5.40;;;16.10;99.90;;;;;;4918120;28;91958;-34
2022/08/21 00:20:52;;;;;;;6.03;4.68;;;16.10;99.90;;;;;;4918438;28;96548;-32
2022/08/21 00:23:18;;;;;;;4.75;4.15;;;16.00;99.90;;;;;;4917794;28;93179;-31
2022/08/21 00:28:38;;;;;;;4.97;4.55;;;16.00;99.90;;;;;;4877173;28;94072;-32
2022/08/21 00:31:04;;;;;;;6.22;5.32;;;15.90;99.90;;;;;;4879070;28;94716;-33
2022/08/21 00:33:31;;;;;;;5.22;4.22;;;15.90;99.90;;;;;;4879347;28;94070;-33
2022/08/21 00:35:57;;;;;;;8.73;4.78;;;15.90;99.90;;;;;;4879990;28;92243;-31
2022/08/21 00:38:23;;;;;;;6.38;4.82;;;15.90;99.90;;;;;;4879326;28;93738;-31
2022/08/21 00:40:57;;;;;;;9.68;6.07;;;15.90;99.90;;;;;;4880044;28;94455;-32
2022/08/21 00:43:29;;;;;;;6.80;5.68;;;15.90;99.90;;;;;;4879088;28;94405;-33
2022/08/21 00:45:56;;;;;;;7.43;5.22;;;15.90;99.90;;;;;;4879433;28;95003;-32
2022/08/21 00:48:23;;;;;;;7.93;6.68;;;15.90;99.90;;;;;;4882089;28;94950;-33
2022/08/21 00:50:55;;;;;;;7.80;6.30;;;15.90;99.90;;;;;;4882496;28;95515;-31
2022/08/21 00:53:22;;;;;;;7.22;5.40;;;15.90;99.90;;;;;;4882003;28;95519;-32
2022/08/21 00:55:48;;;;;;;9.88;7.22;;;15.90;99.90;;;;;;4883078;28;92495;-31
2022/08/21 00:58:14;;;;;;;7.63;6.00;;;15.80;99.90;;;;;;4881644;28;93340;-34
2022/08/21 01:00:43;;;;;;;9.63;7.55;;;15.80;99.90;;;;;;4882675;28;94661;-30
2022/08/21 01:03:13;;;;;;;9.07;6.72;;;15.80;99.90;;;;;;4882586;28;94524;-30
2022/08/21 01:05:40;;;;;;;18.42;8.27;;;15.80;99.90;;;;;;4882274;28;94457;-32
2022/08/21 01:08:07;;;;;;;11.75;7.40;;;15.80;99.90;;;;;;4882896;28;92701;-31
2022/08/21 01:10:33;;;;;;;13.00;8.15;;;15.80;99.90;;;;;;4881376;28;94485;-30
2022/08/21 01:12:59;;;;;;;7.45;6.75;;;15.80;99.90;;;;;;4882355;28;94599;-33
2022/08/21 01:15:30;;;;;;;8.57;6.68;;;15.70;99.90;;;;;;4882471;28;93232;-31
2022/08/21 01:17:56;;;;;;;10.73;7.78;;;15.70;99.90;;;;;;4882247;28;94493;-31
2022/08/21 01:20:21;;;;;;;14.48;7.97;;;15.70;99.90;;;;;;4881506;28;94619;-31
2022/08/21 01:22:47;;;;;;;8.05;7.25;;;15.60;99.90;;;;;;4882310;28;94942;-35
2022/08/21 01:25:15;;;;;;;7.63;6.78;;;15.50;99.90;;;;;;4882380;28;93613;-30
2022/08/21 01:27:41;;;;;;;11.25;6.70;;;15.50;99.90;;;;;;4881704;28;93195;-30
2022/08/21 01:30:14;;;;;;;15.90;7.82;;;15.50;99.90;;;;;;4881478;28;94447;-34
2022/08/21 01:32:40;;;;;;;8.18;7.47;;;15.40;99.90;;;;;;4882007;28;95421;-31
2022/08/21 01:35:08;;;;;;;14.15;9.10;;;15.40;99.90;;;;;;4881685;28;94081;-32
2022/08/21 01:37:33;;;;;;;12.65;8.73;;;15.30;99.90;;;;;;4880142;28;92463;-33
2022/08/21 01:39:59;;;;;;;9.75;7.97;;;15.30;99.90;;;;;;4880803;28;95583;-32
2022/08/21 01:42:25;;;;;;;7.60;6.70;;;15.20;99.90;;;;;;4881854;28;95383;-31
2022/08/21 01:44:50;;;;;;;17.75;8.82;;;15.20;99.90;;;;;;4882125;28;92859;-31
2022/08/21 01:47:17;;;;;;;9.25;7.97;;;15.10;99.90;;;;;;4881873;28;93055;-30
2022/08/21 01:49:43;;;;;;;9.52;7.65;;;15.10;99.90;;;;;;4881805;28;94699;-32
2022/08/21 01:52:09;;;;;;;10.63;8.18;;;15.10;99.90;;;;;;4881381;28;94672;-31
2022/08/21 01:54:35;;;;;;;15.45;8.45;;;15.10;99.90;;;;;;4881366;28;93658;-33
2022/08/21 01:57:02;;;;;;;9.13;8.32;;;15.00;99.90;;;;;;4882540;28;93791;-30
2022/08/21 01:59:28;;;;;;;11.38;8.27;;;15.00;99.90;;;;;;4880327;28;94804;-31
2022/08/21 02:01:54;;;;;;;8.93;8.02;;;14.90;99.90;;;;;;4881184;28;94583;-31
2022/08/21 02:04:20;;;;;;;12.88;9.18;;;14.90;99.90;;;;;;4880788;28;95214;-31
2022/08/21 02:06:46;;;;;;;8.55;7.57;;;14.90;99.90;;;;;;4881237;28;92670;-31
2022/08/21 02:09:13;;;;;;;11.10;8.82;;;14.80;99.90;;;;;;4881626;28;95030;-33
2022/08/21 02:11:40;;;;;;;13.35;9.50;;;14.80;99.90;;;;;;4880826;28;94560;-35
2022/08/21 02:14:07;;;;;;;8.95;8.15;;;14.80;99.90;;;;;;4881331;28;93507;-32
2022/08/21 02:16:33;;;;;;;12.90;8.73;;;14.80;99.90;;;;;;4881310;28;93323;-34
2022/08/21 02:18:59;;;;;;;13.68;8.95;;;14.70;99.90;;;;;;4880970;28;94940;-33
2022/08/21 02:21:25;;;;;;;10.88;7.95;;;14.70;99.90;;;;;;4881492;28;94495;-33
2022/08/21 02:23:50;;;;;;;10.77;8.82;;;14.70;99.90;;;;;;4881771;28;93228;-32
2022/08/21 02:26:16;;;;;;;10.93;8.70;;;14.60;99.90;;;;;;4880611;28;93227;-33
2022/08/21 02:28:42;;;;;;;10.98;9.43;;;14.60;99.90;;;;;;4880842;28;95540;-31
2022/08/21 02:31:08;;;;;;;12.10;8.50;;;14.60;99.90;;;;;;4881045;28;95916;-33
2022/08/21 02:33:34;;;;;;;11.27;8.18;;;14.60;99.90;;;;;;4880864;28;94717;-34
2022/08/21 02:36:01;;;;;;;10.32;9.32;;;14.60;99.90;;;;;;4880865;28;92230;-32
2022/08/21 02:38:30;;;;;;;10.02;8.85;;;14.60;99.90;;;;;;4880625;28;94745;-34
2022/08/21 02:40:57;;;;;;;9.30;8.38;;;14.50;99.90;;;;;;4880504;28;96101;-31
2022/08/21 02:43:24;;;;;;;9.75;8.32;;;14.50;99.90;;;;;;4880947;28;93450;-34
2022/08/21 02:45:51;;;;;;;11.63;8.47;;;14.40;99.90;;;;;;4881327;28;92422;-31
2022/08/21 02:48:19;;;;;;;8.98;8.18;;;14.40;99.90;;;;;;4880345;28;94687;-32
2022/08/21 02:50:51;;;;;;;11.18;9.07;;;14.40;99.90;;;;;;4880628;28;96009;-30
2022/08/21 02:53:17;;;;;;;17.88;8.70;;;14.40;99.90;;;;;;4880907;28;93472;-32
2022/08/21 02:55:44;;;;;;;13.52;10.10;;;14.40;99.90;;;;;;4880800;28;94804;-29
2022/08/21 02:58:12;;;;;;;11.45;9.98;;;14.40;99.90;;;;;;4880374;28;95222;-31
2022/08/21 03:00:38;;;;;;;10.38;9.43;;;14.30;99.90;;;;;;4879953;28;94503;-29
2022/08/21 03:03:05;;;;;;;14.40;10.65;;;14.30;99.90;;;;;;4880012;28;93953;-32
2022/08/21 03:05:32;;;;;;;9.95;8.30;;;14.30;99.90;;;;;;4879580;28;93625;-31
2022/08/21 03:07:59;;;;;;;12.20;9.45;;;14.30;99.90;;;;;;4880355;28;95013;-31
2022/08/21 03:10:26;;;;;;;12.10;10.93;;;14.30;99.90;;;;;;4881104;28;93088;-30
2022/08/21 03:12:52;;;;;;;11.18;10.02;;;14.30;99.90;;;;;;4879928;28;93064;-32
2022/08/21 03:15:20;;;;;;;13.40;10.73;;;14.30;99.90;;;;;;4879866;28;94487;-29
2022/08/21 03:17:46;;;;;;;15.48;11.93;;;14.30;99.90;;;;;;4879566;28;95875;-29
2022/08/21 03:20:14;;;;;;;11.93;10.68;;;14.30;99.90;;;;;;4879060;28;95524;-33
2022/08/21 03:22:40;;;;;;;12.07;9.82;;;14.30;99.90;;;;;;4879321;28;94544;-32
2022/08/21 03:25:08;;;;;;;23.38;12.93;;;14.30;99.90;;;;;;4880424;28;94197;-30
2022/08/21 03:27:34;;;;;;;12.37;11.10;;;14.30;99.90;;;;;;4879429;28;95198;-30
2022/08/21 03:30:01;;;;;;;11.27;10.05;;;14.30;99.90;;;;;;4879528;28;94543;-31
2022/08/21 03:32:27;;;;;;;16.48;12.10;;;14.30;99.90;;;;;;4879640;28;92134;-30
2022/08/21 03:34:52;;;;;;;13.52;11.32;;;14.30;99.90;;;;;;4880003;28;91451;-30
2022/08/21 03:37:18;;;;;;;14.07;11.95;;;14.30;99.90;;;;;;4878611;28;94692;-31
2022/08/21 03:39:44;;;;;;;13.38;12.20;;;14.30;99.90;;;;;;4879727;28;94446;-34
2022/08/21 03:42:11;;;;;;;14.60;11.90;;;14.20;99.90;;;;;;4879175;28;95315;-31
2022/08/21 03:44:37;;;;;;;13.15;11.80;;;14.20;99.90;;;;;;4879174;28;92440;-33
2022/08/21 03:47:03;;;;;;;12.00;10.90;;;14.20;99.90;;;;;;4879323;28;94521;-29
2022/08/21 03:49:29;;;;;;;13.55;12.32;;;14.20;99.90;;;;;;4878505;28;94491;-31
2022/08/21 03:51:55;;;;;;;13.40;12.10;;;14.20;99.90;;;;;;4879679;28;93157;-31
2022/08/21 03:54:21;;;;;;;15.05;13.48;;;14.20;99.90;;;;;;4878907;28;92290;-30
2022/08/21 03:56:47;;;;;;;17.05;11.70;;;14.20;99.90;;;;;;4879431;28;94449;-31
2022/08/21 03:59:13;;;;;;;12.70;11.60;;;14.20;99.90;;;;;;4879151;28;94596;-31
2022/08/21 04:01:39;;;;;;;20.13;12.93;;;14.20;99.90;;;;;;4879206;28;93128;-31
2022/08/21 04:04:05;;;;;;;14.27;12.73;;;14.20;99.90;;;;;;4879262;28;94276;-35
2022/08/21 04:06:31;;;;;;;17.17;13.35;;;14.20;99.90;;;;;;4878511;28;95774;-31
2022/08/21 04:08:57;;;;;;;15.05;13.48;;;14.10;99.90;;;;;;4878835;28;96790;-29
2022/08/21 04:11:23;;;;;;;17.05;13.90;;;14.20;99.90;;;;;;4879585;28;93868;-32
2022/08/21 04:13:49;;;;;;;15.45;12.73;;;14.10;99.90;;;;;;4879314;28;93259;-30
2022/08/21 04:16:15;;;;;;;15.77;13.38;;;14.10;99.90;;;;;;4878579;28;94673;-32
2022/08/21 04:18:41;;;;;;;19.70;14.32;;;14.10;99.90;;;;;;4879079;28;95059;-32
2022/08/21 04:21:09;;;;;;;17.00;14.30;;;14.10;99.90;;;;;;4880003;28;93005;-30
2022/08/21 04:23:35;;;;;;;13.60;12.23;;;14.20;99.90;;;;;;4884841;28;92181;-31
2022/08/21 04:26:01;;;;;;;16.35;13.68;;;14.10;99.90;;;;;;4885284;28;95279;-33
2022/08/21 04:28:27;;;;;;;16.73;14.95;;;14.20;99.90;;;;;;4884198;28;94431;-33
2022/08/21 04:30:53;;;;;;;14.70;12.98;;;14.10;99.90;;;;;;4885124;28;95078;-34
2022/08/21 04:33:20;;;;;;;16.77;13.90;;;14.20;99.90;;;;;;4884529;28;94278;-30
2022/08/21 04:35:46;;;;;;;15.13;13.55;;;14.20;99.90;;;;;;4884989;28;94502;-30
2022/08/21 04:38:12;;;;;;;15.63;14.25;;;14.20;99.90;;;;;;4885363;28;95486;-30
2022/08/21 04:40:37;;;;;;;16.23;13.48;;;14.20;99.90;;;;;;4885230;28;93379;-31
2022/08/21 04:43:07;;;;;;;14.68;13.15;;;14.30;99.90;;;;;;4885052;28;94968;-31
2022/08/21 04:45:47;;;;;;;14.23;12.73;;;14.30;99.90;;;;;;4884587;28;94795;-30
2022/08/21 04:48:14;;;;;;;23.75;13.65;;;14.30;99.90;;;;;;4884604;28;94290;-33
2022/08/21 04:50:50;;;;;;;14.88;12.57;;;14.30;99.90;;;;;;4885914;28;93209;-32
2022/08/21 04:53:35;;;;;;;13.77;12.48;;;14.30;99.90;;;;;;4885239;28;94515;-32
2022/08/21 04:56:08;;;;;;;21.60;14.02;;;14.30;99.90;;;;;;4883560;28;95523;-30
2022/08/21 04:58:35;;;;;;;15.48;11.63;;;14.30;99.90;;;;;;4884321;28;95490;-31
2022/08/21 05:01:03;;;;;;;15.45;13.25;;;14.40;99.90;;;;;;4885291;28;93694;-31
2022/08/21 05:03:32;;;;;;;18.67;13.95;;;14.40;99.90;;;;;;4882897;28;93272;-31
2022/08/21 05:05:59;;;;;;;15.23;12.70;;;14.40;99.90;;;;;;4884685;28;94978;-34
2022/08/21 05:08:26;;;;;;;13.65;12.40;;;14.50;99.90;;;;;;4884036;28;94715;-31
2022/08/21 05:10:52;;;;;;;13.95;12.52;;;14.50;99.90;;;;;;4885317;28;94370;-32
2022/08/21 05:13:18;;;;;;;14.65;11.52;;;14.50;99.90;;;;;;4884603;28;91418;-29
2022/08/21 05:15:44;;;;;;;14.63;12.02;;;14.50;99.90;;;;;;4884812;28;93574;-32
2022/08/21 05:18:10;;;;;;;13.25;11.98;;;14.60;99.90;;;;;;4884325;28;94689;-30
2022/08/21 05:20:36;;;;;;;17.17;12.50;;;14.60;99.90;;;;;;4884753;28;95452;-34
2022/08/21 05:23:08;;;;;;;13.65;11.55;;;14.70;99.90;;;;;;4884345;28;92266;-31
2022/08/21 05:25:33;;;;;;;15.02;11.48;;;14.70;99.90;;;;;;4885020;28;95550;-31
2022/08/21 05:27:59;;;;;;;11.27;9.88;;;14.70;99.90;;;;;;4884094;28;94489;-30
2022/08/21 05:30:25;;;;;;;11.38;10.27;;;14.80;99.90;;;;;;4915478;28;94283;-33
2022/08/21 05:32:57;;;;;;;15.77;11.93;;;14.90;99.90;;;;;;4882641;28;94570;-31
2022/08/21 05:35:23;;;;;;;10.75;9.65;;;15.00;99.90;;;;;;4881558;28;94920;-33
2022/08/21 05:37:48;;;;;;;12.25;10.77;;;15.10;99.90;;;;;;4881432;28;94563;-33
2022/08/21 05:40:14;;;;;;;15.23;9.73;;;15.20;99.90;;;;;;4880902;28;93926;-34
2022/08/21 05:42:39;;;;;;;11.70;9.15;;;15.30;99.90;;;;;;4881576;28;94189;-30
2022/08/21 05:45:05;;;;;;;10.55;9.50;;;15.40;99.90;;;;;;4880895;28;95693;-33
2022/08/21 05:47:31;;;;;;;15.38;10.82;;;15.40;99.90;;;;;;4881202;28;95518;-34
2022/08/21 05:49:57;;;;;;;10.65;8.48;;;15.50;99.90;;;;;;4880781;28;94489;-30
2022/08/21 05:52:23;;;;;;;14.63;10.35;;;15.50;99.90;;;;;;4881356;28;92969;-33
2022/08/21 05:54:48;;;;;;;8.68;7.88;;;15.50;99.90;;;;;;4880784;28;94756;-31
2022/08/21 05:57:14;;;;;;;13.88;8.85;;;15.60;99.90;;;;;;4881413;28;94647;-30
2022/08/21 05:59:40;;;;;;;11.10;9.38;;;15.60;99.90;;;;;;4881976;28;92655;-30
2022/08/21 06:02:07;;;;;;;18.05;7.95;;;15.60;99.90;;;;;;4881641;28;93504;-32
2022/08/21 06:04:36;;;;;;;11.70;8.55;;;15.70;99.90;;;;;;4880760;28;95152;-31
2022/08/21 06:07:02;;;;;;;10.27;8.20;;;15.70;99.90;;;;;;4881840;28;95021;-31
2022/08/21 06:09:27;;;;;;;11.18;8.30;;;15.70;99.90;;;;;;4881029;28;94024;-30
2022/08/21 06:11:53;;;;;;;11.70;8.60;;;15.80;99.90;;;;;;4880979;28;94105;-32
2022/08/21 06:14:18;;;;;;;8.43;7.63;;;15.80;99.90;;;;;;4881212;28;94372;-29
2022/08/21 06:16:44;;;;;;;12.32;8.40;;;15.90;99.90;;;;;;4880331;28;94286;-31
2022/08/21 06:19:09;;;;;;;10.60;7.20;;;15.90;99.90;;;;;;4881450;28;92109;-30
2022/08/21 06:21:35;;;;;;;10.70;7.18;;;16.00;99.90;;;;;;4880313;28;93480;-31
2022/08/21 06:24:01;;;;;;;8.48;7.60;;;16.00;99.90;;;;;;4881104;28;95126;-32
2022/08/21 06:26:27;;;;;;;8.93;7.68;;;16.10;99.90;;;;;;4881152;28;96560;-30
2022/08/21 06:28:53;;;;;;;8.45;7.65;;;16.20;99.90;;;;;;4881287;28;94235;-31
2022/08/21 06:31:25;;;;;;;11.10;7.57;;;16.20;99.90;;;;;;4880475;28;95231;-32
2022/08/21 06:33:52;;;;;;;9.63;6.85;;;16.30;99.90;;;;;;4879911;28;96254;-32
2022/08/21 06:36:18;;;;;;;11.85;8.27;;;16.30;99.90;;;;;;4880426;28;94920;-29
2022/08/21 06:38:45;;;;;;;7.50;6.80;;;16.50;99.90;;;;;;4880832;28;94537;-29
2022/08/21 06:41:11;;;;;;;9.52;7.55;;;16.50;99.90;;;;;;4881240;28;94206;-34
2022/08/21 06:43:37;;;;;;;10.50;7.68;;;16.70;99.90;;;;;;4880760;28;94742;-33
2022/08/21 06:46:03;;;;;;;11.65;7.80;;;16.70;99.90;;;;;;4879408;28;94512;-31
2022/08/21 06:48:31;;;;;;;8.98;7.40;;;16.90;99.90;;;;;;4880844;28;92700;-33
2022/08/21 06:50:58;;;;;;;10.38;7.78;;;17.00;99.90;;;;;;4881174;28;91416;-33
2022/08/21 06:53:24;;;;;;;8.88;7.50;;;17.10;99.90;;;;;;4881118;28;94695;-32
2022/08/21 06:55:49;;;;;;;13.88;8.07;;;17.20;99.90;;;;;;4880143;28;94954;-31
2022/08/21 06:58:16;;;;;;;10.32;6.97;;;17.30;99.90;;;;;;4880444;28;94316;-30
2022/08/21 07:00:46;;;;;;;7.22;6.53;;;17.50;99.90;;;;;;4880884;28;93134;-33
2022/08/21 07:03:19;;;;;;;8.38;7.20;;;17.60;99.90;;;;;;4881860;28;94441;-35
2022/08/21 07:05:44;;;;;;;13.75;6.25;;;17.70;99.90;;;;;;4881083;28;94644;-32
2022/08/21 07:08:10;;;;;;;13.55;6.45;;;17.90;99.90;;;;;;4880697;28;92666;-30
2022/08/21 07:10:35;;;;;;;10.18;5.72;;;18.20;99.90;;;;;;4880743;28;94322;-31
2022/08/21 07:13:01;;;;;;;8.65;6.22;;;18.40;99.90;;;;;;4880061;28;95077;-33
2022/08/21 07:15:30;;;;;;;8.25;5.95;;;18.70;99.90;;;;;;4880693;28;94101;-29
2022/08/21 07:17:57;;;;;;;6.82;5.28;;;18.90;99.90;;;;;;4880860;28;92245;-31
2022/08/21 07:20:22;;;;;;;8.40;5.47;;;19.20;99.90;;;;;;4879767;28;93543;-31
2022/08/21 07:22:48;;;;;;;5.15;4.65;;;19.30;99.90;;;;;;4879207;28;95555;-34
2022/08/21 07:25:13;;;;;;;6.50;5.88;;;19.50;99.90;;;;;;4879599;28;95164;-31
2022/08/21 07:27:39;;;;;;;7.00;4.60;;;19.70;99.90;;;;;;4879636;28;94423;-31
2022/08/21 07:30:06;;;;;;;10.02;4.32;;;19.90;99.90;;;;;;4879930;28;92672;-33
2022/08/21 07:32:31;;;;;;;5.80;4.57;;;20.00;99.90;;;;;;4879812;28;93562;-30
2022/08/21 07:34:57;;;;;;;6.40;3.85;;;20.20;99.90;;;;;;4879422;28;94640;-32
2022/08/21 07:37:23;;;;;;;5.90;3.63;;;20.30;99.90;;;;;;4880121;28;94541;-30
2022/08/21 07:39:48;;;;;;;5.53;3.55;;;20.40;99.90;;;;;;4880497;28;93198;-33
2022/08/21 07:42:15;;;;;;;5.45;4.43;;;20.60;99.90;;;;;;4879424;28;94425;-33
2022/08/21 07:44:41;;;;;;;10.38;4.07;;;20.80;99.90;;;;;;4882532;28;94437;-32
2022/08/21 07:47:06;;;;;;;6.65;4.18;;;21.00;99.90;;;;;;4881529;28;93438;-34
2022/08/21 07:49:32;;;;;;;6.65;3.65;;;21.10;99.90;;;;;;4878520;28;93722;-30
2022/08/21 07:51:57;;;;;;;8.13;4.40;;;21.20;99.90;;;;;;4878986;28;94625;-31
2022/08/21 07:54:23;;;;;;;9.02;3.33;;;21.30;99.90;;;;;;4880061;28;94278;-30
2022/08/21 07:56:49;;;;;;;7.65;3.78;;;21.50;99.90;;;;;;4878711;28;94436;-32
2022/08/21 07:59:14;;;;;;;8.60;3.35;;;21.60;99.90;;;;;;4879755;28;93002;-34
2022/08/21 08:01:40;;;;;;;8.05;3.03;;;21.70;99.90;;;;;;4880851;28;94957;-33
2022/08/21 08:04:06;;;;;;;10.68;4.32;;;21.70;99.90;;;;;;4889132;28;94446;-33
2022/08/21 08:06:31;;;;;;;3.88;2.97;;;21.80;99.90;;;;;;4892104;28;92167;-31
2022/08/21 08:08:57;;;;;;;11.63;3.80;;;21.90;99.90;;;;;;4885166;28;92985;-30
2022/08/21 08:11:23;;;;;;;5.40;3.25;;;21.90;99.90;;;;;;4884631;28;95555;-32
2022/08/21 08:13:50;;;;;;;7.22;2.28;;;22.00;99.90;;;;;;4886061;28;95084;-33
2022/08/21 08:16:17;;;;;;;7.60;3.35;;;22.10;99.90;;;;;;4886063;28;93049;-33
2022/08/21 08:18:44;;;;;;;5.32;3.65;;;22.10;99.90;;;;;;4887290;28;93301;-31
2022/08/21 08:21:10;;;;;;;9.63;3.22;;;22.10;99.90;;;;;;4889508;28;95400;-32
2022/08/21 08:23:36;;;;;;;5.05;2.83;;;22.20;99.90;;;;;;4891003;28;94922;-32
2022/08/21 08:26:05;;;;;;;9.52;2.97;;;22.20;99.90;;;;;;4892311;28;92240;-31
2022/08/21 08:28:32;;;;;;;8.63;3.75;;;22.30;99.90;;;;;;4890944;28;92391;-30
2022/08/21 08:30:59;;;;;;;8.90;3.70;;;22.40;99.90;;;;;;4885266;28;94350;-32
2022/08/21 08:33:24;;;;;;;8.50;4.07;;;22.50;99.90;;;;;;4883556;28;94504;-31
2022/08/21 08:35:51;;;;;;;7.80;3.80;;;22.40;99.90;;;;;;4882474;28;93132;-31
2022/08/21 08:38:19;;;;;;;7.30;3.92;;;22.50;99.90;;;;;;4882103;28;92274;-32
2022/08/21 08:40:52;;;;;;;5.68;4.55;;;22.50;99.90;;;;;;4881795;28;94931;-30
2022/08/21 08:43:19;;;;;;;10.20;4.53;;;22.60;99.90;;;;;;4882891;28;94554;-30
2022/08/21 08:45:49;;;;;;;7.72;3.72;;;22.60;99.90;;;;;;4883971;28;93374;-31
2022/08/21 08:48:30;;;;;;;7.35;3.78;;;22.70;99.90;;;;;;4884002;28;93313;-30
2022/08/21 08:50:59;;;;;;;6.80;4.88;;;22.60;99.90;;;;;;4881592;28;94611;-32
2022/08/21 08:53:34;;;;;;;5.72;4.47;;;22.60;99.90;;;;;;4888088;28;94569;-33
2022/08/21 08:56:02;;;;;;;7.32;4.30;;;22.50;99.90;;;;;;4883401;28;93660;-33
2022/08/21 08:58:37;;;;;;;7.00;4.13;;;22.50;99.90;;;;;;4883326;28;94313;-31
2022/08/21 09:01:11;;;;;;;5.90;3.45;;;22.50;99.90;;;;;;4883460;28;95792;-32
2022/08/21 09:03:39;;;;;;;6.40;3.70;;;22.60;99.90;;;;;;4883287;28;95797;-32
2022/08/21 09:06:24;;;;;;;4.85;2.88;;;22.60;99.90;;;;;;4880521;28;92308;-31
2022/08/21 09:09:08;;;;;;;6.53;3.08;;;22.80;99.90;;;;;;4883604;28;92692;-31
2022/08/21 09:11:48;;;;;;;7.07;3.67;;;23.00;99.90;;;;;;4880617;28;94798;-33
2022/08/21 09:14:27;;;;;;;10.85;3.75;;;23.00;99.90;;;;;;4888203;28;94278;-30
2022/08/21 09:17:10;;;;;;;6.68;2.78;;;23.10;99.90;;;;;;4881597;28;93949;-33
2022/08/21 09:20:15;;;;;;;4.97;3.13;;;23.00;99.90;;;;;;4881455;28;92635;-33
2022/08/21 09:23:12;;;;;;;5.35;2.95;;;22.90;99.90;;;;;;4880363;28;95392;-31
2022/08/21 09:25:50;;;;;;;3.42;2.95;;;22.90;99.90;;;;;;4878921;28;94742;-30
2022/08/21 09:28:16;;;;;;;8.65;3.25;;;23.00;99.90;;;;;;4878115;28;94827;-32
2022/08/21 09:30:42;;;;;;;7.63;2.72;;;23.00;99.90;;;;;;4879605;28;94188;-32
2022/08/21 09:33:11;;;;;;;4.88;3.10;;;22.90;99.90;;;;;;4879270;28;94963;-33
2022/08/21 09:35:47;;;;;;;5.50;2.88;;;22.70;99.90;;;;;;4880863;28;95495;-31
2022/08/21 09:38:29;;;;;;;5.85;2.92;;;22.60;99.90;;;;;;4886761;28;92836;-33
2022/08/21 09:40:59;;;;;;;3.45;2.60;;;22.30;99.90;;;;;;4878905;28;94483;-33
2022/08/21 09:43:26;;;;;;;4.50;2.97;;;22.10;99.90;;;;;;4878310;28;95866;-32
2022/08/21 09:46:05;;;;;;;7.82;3.60;;;22.00;99.90;;;;;;4879518;28;94740;-32
2022/08/21 09:48:40;;;;;;;4.25;2.85;;;22.30;99.90;;;;;;4879249;28;94163;-32
2022/08/21 09:51:11;;;;;;;8.32;3.00;;;22.50;99.90;;;;;;4878884;28;93512;-32
2022/08/21 09:53:42;;;;;;;5.68;3.13;;;22.80;99.90;;;;;;4878532;28;95251;-30
2022/08/21 09:59:18;;;;;;;5.88;3.30;;;23.30;99.90;;;;;;4880500;28;93077;-30
2022/08/21 10:01:47;;;;;;;12.05;4.00;;;23.60;99.90;;;;;;4879868;28;94976;-31
2022/08/21 10:04:13;;;;;;;4.88;3.15;;;23.80;99.90;;;;;;4879113;28;95025;-32
2022/08/21 10:06:39;;;;;;;12.65;4.55;;;23.90;99.90;;;;;;4879372;28;94248;-31
2022/08/21 10:09:06;;;;;;;5.75;3.22;;;23.90;99.90;;;;;;4879367;28;93301;-33
2022/08/21 10:11:34;;;;;;;6.60;3.70;;;24.00;99.90;;;;;;4879327;28;92684;-34
2022/08/21 10:14:20;;;;;;;3.60;2.50;;;24.00;99.90;;;;;;4879930;28;94765;-30
2022/08/21 10:17:04;;;;;;;9.20;3.35;;;24.00;99.90;;;;;;4879295;28;94562;-32
2022/08/21 10:19:30;;;;;;;5.85;2.85;;;24.20;99.90;;;;;;4878550;28;95895;-33
2022/08/21 10:22:18;;;;;;;5.70;2.83;;;24.40;99.90;;;;;;4879155;28;94332;-33
2022/08/21 10:25:20;;;;;;;2.85;2.55;;;24.60;99.90;;;;;;4879321;28;95592;-33
2022/08/21 10:28:11;;;;;;;9.82;3.38;;;24.70;99.90;;;;;;4878821;28;94021;-30
2022/08/21 10:30:59;;;;;;;2.97;1.70;;;24.70;99.90;;;;;;4891137;28;92669;-33
2022/08/21 10:33:42;;;;;;;4.68;2.53;;;24.60;99.50;;;;;;4884164;28;93569;-33
2022/08/21 10:36:31;;;;;;;2.92;2.58;;;24.40;99.90;;;;;;4884591;28;94932;-31
2022/08/21 10:39:20;;;;;;;6.13;3.25;;;24.40;99.90;;;;;;4875812;28;94256;-34
2022/08/21 10:42:12;;;;;;;6.35;3.53;;;24.40;99.90;;;;;;4887632;28;93524;-32
2022/08/21 10:45:08;;;;;;;7.38;2.65;;;24.40;99.90;;;;;;4879411;28;93026;-31
2022/08/21 10:47:55;;;;;;;5.25;2.65;;;24.40;99.90;;;;;;4881217;28;95386;-33
2022/08/21 10:50:41;;;;;;;13.25;2.88;;;24.50;99.90;;;;;;4882379;28;96456;-31
2022/08/21 10:53:25;;;;;;;10.23;4.13;;;24.50;99.90;;;;;;4884178;28;94361;-30
2022/08/21 10:55:56;;;;;;;4.18;1.88;;;24.50;99.90;;;;;;4887198;28;93286;-31
2022/08/21 10:58:37;;;;;;;5.47;2.97;;;24.60;99.90;;;;;;4882748;28;94343;-32
2022/08/21 11:01:15;;;;;;;4.75;2.63;;;24.70;99.90;;;;;;4889868;28;94940;-31
2022/08/21 11:04:10;;;;;;;3.40;2.17;;;24.70;99.90;;;;;;4888116;28;93146;-33
2022/08/21 11:06:41;;;;;;;10.95;2.78;;;24.70;99.90;;;;;;4877075;28;91584;-32
2022/08/21 11:09:18;;;;;;;4.38;1.92;;;24.70;99.90;;;;;;4885773;28;94958;-31
2022/08/21 11:12:04;;;;;;;4.07;2.13;;;24.70;99.90;;;;;;4883436;28;96390;-32
2022/08/21 11:15:01;;;;;;;6.70;2.47;;;24.80;99.90;;;;;;4887428;28;93937;-32
2022/08/21 11:17:38;;;;;;;6.25;1.95;;;24.80;99.90;;;;;;4889772;28;93735;-31
2022/08/21 11:20:15;;;;;;;4.23;2.03;;;24.90;99.90;;;;;;4891861;28;94664;-31
2022/08/21 11:22:54;;;;;;;7.87;2.63;;;24.80;99.90;;;;;;4884450;28;94528;-31
2022/08/21 11:25:27;;;;;;;4.43;1.73;;;24.90;99.90;;;;;;4884635;28;93169;-32
2022/08/21 11:28:00;;;;;;;7.60;2.45;;;24.90;99.90;;;;;;4883189;28;92659;-33
2022/08/21 11:30:38;;;;;;;5.65;1.80;;;24.90;99.90;;;;;;4880804;28;95169;-31
2022/08/21 11:33:10;;;;;;;5.45;2.20;;;24.90;99.90;;;;;;4881438;28;93681;-34
2022/08/21 11:35:52;;;;;;;3.85;2.15;;;24.90;99.90;;;;;;4883365;28;92929;-31
2022/08/21 11:38:34;;;;;;;5.00;1.70;;;24.90;99.90;;;;;;4879480;28;92169;-31
2022/08/21 11:41:28;;;;;;;2.45;1.88;;;25.00;95.80;;;;;;4882387;28;95862;-33
2022/08/21 11:44:14;;;;;;;5.10;1.92;;;25.00;98.30;;;;;;4886347;28;95496;-30
2022/08/21 11:46:45;;;;;;;2.83;1.65;;;25.10;99.90;;;;;;4869823;28;93063;-33
2022/08/21 11:49:28;;;;;;;4.53;2.45;;;25.20;99.00;;;;;;4881284;28;93587;-31
2022/08/21 11:52:05;;;;;;;6.30;1.92;;;25.20;98.70;;;;;;4881775;28;94835;-32
2022/08/21 11:54:44;;;;;;;4.30;1.92;;;25.30;98.40;;;;;;4877999;28;94917;-31
2022/08/21 11:57:28;;;;;;;6.07;2.33;;;25.30;99.40;;;;;;4877654;28;92725;-31
2022/08/21 12:00:20;;;;;;;3.42;2.03;;;25.30;98.60;;;;;;4877642;28;93920;-31
2022/08/21 12:02:51;;;;;;;4.43;1.52;;;25.30;95.60;;;;;;4877743;28;95662;-31
2022/08/21 12:05:32;;;;;;;2.63;1.73;;;25.10;97.20;;;;;;4877829;28;94646;-33
2022/08/21 12:08:14;;;;;;;4.25;1.75;;;25.20;99.80;;;;;;4878683;28;95411;-33
2022/08/21 12:10:45;;;;;;;6.38;1.75;;;25.30;97.70;;;;;;4880215;28;93486;-31
2022/08/21 12:13:32;;;;;;;6.57;1.92;;;25.30;96.30;;;;;;4879086;28;96614;-32
2022/08/21 12:16:30;;;;;;;3.83;1.92;;;25.30;96.50;;;;;;4878064;28;94718;-32
2022/08/21 12:19:11;;;;;;;3.40;1.80;;;25.10;97.10;;;;;;4877693;28;93461;-34
2022/08/21 12:22:04;;;;;;;2.88;1.50;;;24.90;98.50;;;;;;4893085;28;94657;-33
2022/08/21 12:24:41;;;;;;;7.55;2.20;;;24.90;99.90;;;;;;4877734;28;93636;-33
2022/08/21 12:27:32;;;;;;;7.27;2.77;;;25.10;99.90;;;;;;4917891;23;94073;-33
2022/08/21 12:30:01;;;;;;;2.25;1.60;;;25.40;99.50;;;;;;4897471;28;93052;-34
2022/08/21 12:32:30;;;;;;;4.90;1.92;;;25.50;95.70;;;;;;4896942;28;92736;-31
2022/08/21 12:35:13;;;;;;;5.22;1.65;;;25.30;96.10;;;;;;4895805;28;96816;-33
2022/08/21 12:38:23;;;;;;;3.42;1.65;;;25.30;99.90;;;;;;4883997;28;97660;-32
2022/08/21 12:40:57;;;;;;;2.63;1.83;;;25.40;99.90;;;;;;4892720;28;92304;-32
2022/08/21 12:43:37;;;;;;;3.75;1.73;;;25.60;95.90;;;;;;4898293;28;92931;-32
2022/08/21 12:46:04;;;;;;;7.95;2.65;;;25.60;94.40;;;;;;4901504;28;94652;-31
2022/08/21 12:48:51;;;;;;;7.03;3.25;;;25.70;95.80;;;;;;4898537;28;94415;-32
2022/08/21 12:51:22;;;;;;;;;;;25.90;93.00;;;;;;4899453;28;93740;-35
2022/08/21 12:53:54;;;;;;;2.47;2.28;;;25.90;92.90;;;;;;4901308;28;92485;-32
2022/08/21 12:56:25;;;;;;;2.30;1.52;;;25.80;96.70;;;;;;4898472;28;94689;-33
2022/08/21 12:58:56;;;;;;;3.40;2.38;;;25.80;92.40;;;;;;4898578;28;96232;-33
2022/08/21 13:01:51;;;;;;;2.28;2.03;;;25.80;90.40;;;;;;4898662;28;94122;-32
2022/08/21 13:04:25;;;;;;;3.28;2.10;;;25.70;91.50;;;;;;4897447;28;94070;-32